Decoded Metar for LTCR (MARDIN in TURKEY) (IATA:) | Meteo·Mobile Aviation Weather
aviador You're here:

LTCR Decoded Metar

MARDIN in TURKEY
Report Time2019-02-17 05:50:00
UTC Time2019-02-17 06:20:13
Flight Rules vfr VFR
Wind090° at 03 kt
W.Decomp.*RWY 03: 1.7 kt HW 2.5 kt RCW
W.Rank090° ranks 15
Current wind is below 090° avg. (7.2)
Visibility9000 m
Phenomena:N/A
Clouds:N/A
Expected CloudBase > 400 ft AGL from Temp-Dew spread
CeilingNone
Temp07°C (ISA -5)
Dew Point06°C (93% RH)
AAT5.0°C
QNH1020 hPa
Density Alt1,079 ft
Elevation1,729 ft
Report Wrong Elevation
Raw Report
METAR LTCR 170550Z 09003KT 9000 NSC 07/06 Q1020=

Extra information for LTCR:More info

Metar Taf Metar & Taf Last 4 Metars F.Rules Stats Wind Profile Meteogram Temp Stats Airport Information Weather charts Add Link Nearby VenuesMetar ALERT Operation Metar Decoded Social comments